createdAt,value
2023-12-22T00:01:41.457Z,4.51
2023-12-22T00:06:50.299Z,4.49
2023-12-22T00:11:57.289Z,4.50
2023-12-22T00:17:04.292Z,4.53
2023-12-22T00:22:11.478Z,4.53
2023-12-22T00:27:18.573Z,4.51
2023-12-22T00:32:25.557Z,4.50
2023-12-22T00:37:32.563Z,4.50
2023-12-22T00:42:39.639Z,4.46
2023-12-22T00:47:47.030Z,4.37
2023-12-22T00:52:54.317Z,4.18
2023-12-22T00:58:01.392Z,3.89
2023-12-22T01:03:08.656Z,3.63
2023-12-22T01:08:16.161Z,3.45
2023-12-22T01:13:23.291Z,3.31
2023-12-22T01:18:31.505Z,3.21
2023-12-22T01:23:38.639Z,3.14
2023-12-22T01:28:45.645Z,3.12
2023-12-22T01:33:52.773Z,3.12
2023-12-22T01:39:00.089Z,3.15
2023-12-22T01:44:07.243Z,3.18
2023-12-22T01:49:14.752Z,3.22
2023-12-22T01:54:21.964Z,3.25
2023-12-22T01:59:29.636Z,3.24
2023-12-22T02:04:36.865Z,3.18
2023-12-22T02:09:43.885Z,3.06
2023-12-22T02:14:51.369Z,2.92
2023-12-22T02:19:59.386Z,2.83
2023-12-22T02:25:05.383Z,2.77
2023-12-22T02:30:18.131Z,2.71
2023-12-22T02:35:28.802Z,2.69
2023-12-22T02:40:37.190Z,2.68
2023-12-22T02:45:44.409Z,2.65
2023-12-22T02:50:51.467Z,2.65
2023-12-22T02:55:58.551Z,2.66
2023-12-22T03:01:05.785Z,2.67
2023-12-22T03:06:12.920Z,2.67
2023-12-22T03:11:20.143Z,2.69
2023-12-22T03:16:27.338Z,2.71
2023-12-22T03:21:34.328Z,2.74
2023-12-22T03:26:41.865Z,2.77
2023-12-22T03:31:49.684Z,2.83
2023-12-22T03:36:56.735Z,2.87
2023-12-22T03:42:03.821Z,2.92
2023-12-22T03:47:10.899Z,2.95
2023-12-22T03:52:17.923Z,3.01
2023-12-22T03:57:24.992Z,3.10
2023-12-22T04:02:32.037Z,3.14
2023-12-22T04:07:39.449Z,3.17
2023-12-22T04:12:46.566Z,3.19
2023-12-22T04:17:53.523Z,3.21
2023-12-22T04:23:01.174Z,3.26
2023-12-22T04:28:08.550Z,3.28
2023-12-22T04:33:15.681Z,3.29
2023-12-22T04:38:23.025Z,3.30
2023-12-22T04:43:30.171Z,3.29
2023-12-22T04:48:37.302Z,3.28
2023-12-22T04:53:44.444Z,3.26
2023-12-22T04:58:51.530Z,3.24
2023-12-22T05:03:58.644Z,3.20
2023-12-22T05:09:05.783Z,3.15
2023-12-22T05:14:14.471Z,3.10
2023-12-22T05:19:21.537Z,3.06
2023-12-22T05:24:28.684Z,3.02
2023-12-22T05:29:35.728Z,3.00
2023-12-22T05:34:42.845Z,2.96
2023-12-22T05:39:49.919Z,2.91
2023-12-22T05:44:56.995Z,2.84
2023-12-22T05:50:04.326Z,2.76
2023-12-22T05:55:12.167Z,2.66
2023-12-22T06:00:20.139Z,2.56
2023-12-22T06:05:26.340Z,2.49
2023-12-22T06:10:33.511Z,2.45
2023-12-22T06:15:40.650Z,2.43
2023-12-22T06:20:47.737Z,2.43
2023-12-22T06:25:54.750Z,2.40
2023-12-22T06:31:01.826Z,2.35
2023-12-22T06:36:09.787Z,2.29
2023-12-22T06:41:27.797Z,2.27
2023-12-22T06:46:35.690Z,2.26
2023-12-22T06:51:42.776Z,2.20
2023-12-22T06:56:49.803Z,2.06
2023-12-22T07:02:05.918Z,1.84
2023-12-22T07:07:20.346Z,1.62
2023-12-22T07:12:27.369Z,1.48
2023-12-22T07:17:34.402Z,1.45
2023-12-22T07:22:41.715Z,1.46
2023-12-22T07:27:49.124Z,1.53
2023-12-22T07:32:56.276Z,1.67
2023-12-22T07:38:04.054Z,1.83
2023-12-22T07:43:11.999Z,1.99
2023-12-22T07:48:19.278Z,2.10
2023-12-22T07:53:26.594Z,2.26
2023-12-22T07:58:34.174Z,2.52
2023-12-22T08:03:41.323Z,2.81
2023-12-22T08:08:48.414Z,3.11
2023-12-22T08:13:55.955Z,3.38
2023-12-22T08:19:03.364Z,3.63
2023-12-22T08:24:14.878Z,3.73
2023-12-22T08:29:26.330Z,3.92
2023-12-22T08:34:34.198Z,4.09
2023-12-22T08:39:39.944Z,4.11
2023-12-22T08:44:46.973Z,3.75
2023-12-22T08:49:55.152Z,3.14
2023-12-22T08:55:02.228Z,2.66
2023-12-22T09:00:11.291Z,2.49
2023-12-22T09:05:21.671Z,2.59
2023-12-22T09:10:29.325Z,2.78
2023-12-22T09:15:37.461Z,2.90
2023-12-22T09:20:43.122Z,3.02
2023-12-22T09:25:50.563Z,2.97
2023-12-22T09:30:57.625Z,2.86
2023-12-22T09:36:04.828Z,2.74
2023-12-22T09:41:12.871Z,2.67
2023-12-22T09:46:19.956Z,2.63
2023-12-22T09:51:27.148Z,2.52
2023-12-22T09:56:35.164Z,2.38
2023-12-22T10:01:45.415Z,2.30
2023-12-22T10:06:54.084Z,2.27
2023-12-22T10:12:03.781Z,2.22
2023-12-22T10:17:11.119Z,2.16
2023-12-22T10:22:39.397Z,2.10
2023-12-22T10:29:00.638Z,2.05
2023-12-22T10:34:36.646Z,1.93
2023-12-22T10:39:44.744Z,1.85
2023-12-22T10:44:53.313Z,1.79
2023-12-22T10:50:04.112Z,1.76
2023-12-22T10:55:12.431Z,1.75
2023-12-22T11:00:22.677Z,1.75
2023-12-22T11:05:31.994Z,1.80
2023-12-22T11:10:44.746Z,1.85
2023-12-22T11:15:54.264Z,1.91
2023-12-22T11:21:02.444Z,1.92
2023-12-22T11:26:12.585Z,1.90
2023-12-22T11:31:19.962Z,1.89
2023-12-22T11:36:27.179Z,1.85
2023-12-22T11:41:38.352Z,1.79
2023-12-22T11:46:45.709Z,1.73
2023-12-22T11:51:53.180Z,1.70
2023-12-22T11:57:04.270Z,1.60
2023-12-22T12:02:14.959Z,1.48
2023-12-22T12:07:47.013Z,1.36
2023-12-22T12:13:08.568Z,1.26
2023-12-22T12:18:17.332Z,1.20
2023-12-22T12:23:25.697Z,1.19
2023-12-22T12:28:35.141Z,1.18
2023-12-22T12:33:44.171Z,1.17
2023-12-22T12:39:01.252Z,1.15
2023-12-22T12:44:09.566Z,1.13
2023-12-22T12:49:17.166Z,1.15
2023-12-22T12:54:24.786Z,1.15
2023-12-22T12:59:31.863Z,1.15
2023-12-22T13:04:42.216Z,1.13
2023-12-22T13:09:49.513Z,1.06
2023-12-22T13:14:56.828Z,1.01
2023-12-22T13:20:04.815Z,0.98
2023-12-22T13:25:12.848Z,0.98
2023-12-22T13:30:33.924Z,0.99
2023-12-22T13:35:43.194Z,1.00
2023-12-22T13:40:51.383Z,0.98
2023-12-22T13:45:59.308Z,0.98
2023-12-22T13:51:06.812Z,0.97
2023-12-22T13:56:14.137Z,0.96
2023-12-22T14:01:21.523Z,0.95
2023-12-22T14:06:30.323Z,0.93
2023-12-22T14:11:40.647Z,0.94
2023-12-22T14:16:51.853Z,0.93
2023-12-22T14:21:59.013Z,0.91
2023-12-22T14:27:06.639Z,0.91
2023-12-22T14:32:16.104Z,0.90
2023-12-22T14:37:23.645Z,0.85
2023-12-22T14:42:30.725Z,0.79
2023-12-22T14:47:37.916Z,0.73
2023-12-22T14:52:46.115Z,0.64
2023-12-22T14:57:53.385Z,0.55
2023-12-22T15:03:01.270Z,0.51
2023-12-22T15:08:09.468Z,0.53
2023-12-22T15:13:17.019Z,0.55
2023-12-22T15:18:24.271Z,0.58
2023-12-22T15:29:06.150Z,0.77
2023-12-22T15:34:14.125Z,0.80
2023-12-22T15:39:22.161Z,0.87
2023-12-22T15:44:30.809Z,0.94
2023-12-22T15:49:39.428Z,1.02
2023-12-22T15:54:45.219Z,1.05
2023-12-22T15:59:52.523Z,1.10
2023-12-22T16:04:59.669Z,1.17
2023-12-22T16:10:09.406Z,1.24
2023-12-22T16:15:16.815Z,1.27
2023-12-22T16:20:24.078Z,1.32
2023-12-22T16:25:33.692Z,1.37
2023-12-22T16:30:42.082Z,1.40
2023-12-22T16:36:12.822Z,1.38
2023-12-22T16:41:40.296Z,1.36
2023-12-22T16:46:47.736Z,1.39
2023-12-22T16:51:55.052Z,1.39
2023-12-22T16:57:02.434Z,1.41
2023-12-22T17:02:26.870Z,1.46
2023-12-22T17:07:39.318Z,1.51
2023-12-22T17:13:06.470Z,1.53
2023-12-22T17:18:15.729Z,1.53
2023-12-22T17:23:22.944Z,1.53
2023-12-22T17:28:33.161Z,1.57
2023-12-22T17:33:40.828Z,1.61
2023-12-22T17:38:55.161Z,1.60
2023-12-22T17:44:02.395Z,1.60
2023-12-22T17:49:09.804Z,1.57
2023-12-22T17:54:17.318Z,1.54
2023-12-22T17:59:24.983Z,1.54
2023-12-22T18:04:32.280Z,1.53
2023-12-22T18:09:42.889Z,1.53
2023-12-22T18:14:50.982Z,1.52
2023-12-22T18:19:56.602Z,1.50
2023-12-22T18:25:03.971Z,1.52
2023-12-22T18:30:13.634Z,1.58
2023-12-22T18:35:22.341Z,1.56
2023-12-22T18:40:35.102Z,1.41
2023-12-22T18:45:44.607Z,1.22
2023-12-22T18:50:54.501Z,1.07
2023-12-22T18:56:03.445Z,0.99
2023-12-22T19:01:17.405Z,0.92
2023-12-22T19:06:33.523Z,0.85
2023-12-22T19:11:45.278Z,0.78
2023-12-22T19:17:00.519Z,0.72
2023-12-22T19:22:09.054Z,0.69
2023-12-22T19:27:17.128Z,0.69
2023-12-22T19:32:23.329Z,0.71
2023-12-22T19:37:30.889Z,0.70
2023-12-22T19:42:39.193Z,0.64
2023-12-22T19:47:47.264Z,0.60
2023-12-22T19:52:55.237Z,0.62
2023-12-22T19:58:03.210Z,0.66
2023-12-22T20:03:09.495Z,0.70
2023-12-22T20:08:16.766Z,0.72
2023-12-22T20:13:24.173Z,0.69
2023-12-22T20:18:31.770Z,0.71
2023-12-22T20:23:39.545Z,0.79
2023-12-22T20:28:47.153Z,0.88
2023-12-22T20:33:54.630Z,0.94
2023-12-22T20:39:02.488Z,0.99
2023-12-22T20:44:10.247Z,1.03
2023-12-22T20:49:19.360Z,1.06
2023-12-22T20:54:29.336Z,1.12
2023-12-22T20:59:36.858Z,1.18
2023-12-22T21:04:44.133Z,1.20
2023-12-22T21:09:51.572Z,1.19
2023-12-22T21:14:58.757Z,1.18
2023-12-22T21:20:06.933Z,1.18
2023-12-22T21:25:14.390Z,1.20
2023-12-22T21:30:20.644Z,1.21
2023-12-22T21:35:27.837Z,1.24
2023-12-22T21:40:35.648Z,1.28
2023-12-22T21:45:45.618Z,1.28
2023-12-22T21:50:52.841Z,1.26
2023-12-22T21:56:03.434Z,1.25
2023-12-22T22:01:10.650Z,1.25
2023-12-22T22:06:17.909Z,1.21
2023-12-22T22:11:25.334Z,1.16
2023-12-22T22:16:35.047Z,1.12
2023-12-22T22:21:42.837Z,1.07
2023-12-22T22:26:49.866Z,0.99
2023-12-22T22:31:57.007Z,0.90
2023-12-22T22:37:04.335Z,0.82
2023-12-22T22:42:11.374Z,0.73
2023-12-22T22:47:18.395Z,0.66
2023-12-22T22:52:26.863Z,0.60
2023-12-22T22:57:33.956Z,0.59
2023-12-22T23:02:45.109Z,0.60
2023-12-22T23:07:52.828Z,0.58
2023-12-22T23:12:58.682Z,0.57
2023-12-22T23:18:06.336Z,0.54
2023-12-22T23:23:16.288Z,0.52
2023-12-22T23:28:23.431Z,0.50
2023-12-22T23:33:30.664Z,0.47
2023-12-22T23:38:40.946Z,0.46
2023-12-22T23:43:48.034Z,0.48
2023-12-22T23:48:55.238Z,0.50
2023-12-22T23:54:02.267Z,0.50
2023-12-22T23:59:09.368Z,0.48
